Time;durP1;ratioP1;P1;durP2;ratioP2;P2;SDS_P1;SDS_P2;PMS_P1;PMS_P2;Temp;Humidity;BMP_temperature;BMP_pressure;BME280_temperature;BME280_humidity;BME280_pressure;Samples;Min_cycle;Max_cycle;Signal;HPM_P1;HPM_P2
2022/03/28 00:01:25;;;;;;;1.73;0.60;;;24.70;99.90;;;;;;5071997;28;20652;-69
2022/03/28 00:03:53;;;;;;;1.63;0.60;;;24.60;99.90;;;;;;5072143;28;20547;-69
2022/03/28 00:06:21;;;;;;;1.17;0.60;;;24.60;99.90;;;;;;5071983;28;20790;-69
2022/03/28 00:08:49;;;;;;;1.50;0.60;;;25.00;99.90;;;;;;5072075;28;20259;-68
2022/03/28 00:11:17;;;;;;;7.33;1.00;;;25.10;99.90;;;;;;5071893;28;20257;-68
2022/03/28 00:13:46;;;;;;;1.60;0.90;;;25.60;99.90;;;;;;5051746;28;20228;-69
2022/03/28 00:16:15;;;;;;;2.60;0.73;;;25.30;99.90;;;;;;5051918;28;20224;-68
2022/03/28 00:18:42;;;;;;;4.30;0.80;;;25.90;99.90;;;;;;5065063;28;20184;-67
2022/03/28 00:21:10;;;;;;;1.27;0.60;;;25.70;99.90;;;;;;5071606;28;20245;-67
2022/03/28 00:23:38;;;;;;;1.90;0.90;;;25.90;99.90;;;;;;5071775;28;20184;-68
2022/03/28 00:26:06;;;;;;;2.23;0.80;;;25.10;99.90;;;;;;5071664;28;20176;-68
2022/03/28 00:28:33;;;;;;;3.93;0.60;;;24.80;99.90;;;;;;5071983;28;20225;-68
2022/03/28 00:31:01;;;;;;;4.07;0.80;;;25.00;99.90;;;;;;5071820;28;20613;-68
2022/03/28 00:33:29;;;;;;;2.37;0.80;;;25.00;99.90;;;;;;5071624;28;20617;-68
2022/03/28 00:35:56;;;;;;;1.63;0.77;;;24.80;99.90;;;;;;5071406;28;20227;-68
2022/03/28 00:38:24;;;;;;;1.73;0.70;;;24.70;99.90;;;;;;5071212;28;20306;-68
2022/03/28 00:40:52;;;;;;;2.07;0.87;;;24.80;99.90;;;;;;5070322;28;20576;-68
2022/03/28 00:43:20;;;;;;;3.43;0.93;;;25.00;99.90;;;;;;5072702;28;20168;-67
2022/03/28 00:45:47;;;;;;;1.00;0.53;;;26.00;99.90;;;;;;5075793;28;20219;-67
2022/03/28 00:48:15;;;;;;;5.50;1.30;;;26.40;99.90;;;;;;5074285;28;20183;-69
2022/03/28 00:50:43;;;;;;;1.40;0.60;;;26.80;99.90;;;;;;5075881;28;20179;-69
2022/03/28 00:53:13;;;;;;;2.77;0.80;;;26.50;99.90;;;;;;5075862;28;20176;-70
2022/03/28 00:55:41;;;;;;;3.63;0.77;;;26.60;99.90;;;;;;5075618;28;20211;-70
2022/03/28 00:58:09;;;;;;;3.10;0.90;;;26.80;99.90;;;;;;5073989;28;20748;-69
2022/03/28 01:00:37;;;;;;;3.77;0.60;;;26.80;99.90;;;;;;5075496;28;20184;-69
2022/03/28 01:03:04;;;;;;;3.70;0.70;;;27.10;99.90;;;;;;5075436;28;20267;-69
2022/03/28 01:05:32;;;;;;;0.70;0.60;;;27.10;99.90;;;;;;5073931;28;20191;-69
2022/03/28 01:08:00;;;;;;;1.53;0.87;;;27.40;99.90;;;;;;5075518;28;20675;-70
2022/03/28 01:10:30;;;;;;;2.00;0.60;;;27.50;99.90;;;;;;5075345;28;20259;-69
2022/03/28 01:13:00;;;;;;;4.10;0.60;;;27.30;99.90;;;;;;5075412;28;20171;-70
2022/03/28 01:15:28;;;;;;;2.27;0.80;;;27.40;99.90;;;;;;5075066;28;20215;-70
2022/03/28 01:18:11;;;;;;;1.60;0.80;;;27.40;99.90;;;;;;5074557;28;20320;-69
2022/03/28 01:20:41;;;;;;;1.97;0.73;;;27.10;99.90;;;;;;5065808;28;20190;-68
2022/03/28 01:23:10;;;;;;;4.00;0.70;;;26.60;99.90;;;;;;5074963;28;20621;-68
2022/03/28 01:25:38;;;;;;;3.00;0.60;;;26.50;99.90;;;;;;5074895;28;20222;-70
2022/03/28 01:28:06;;;;;;;1.50;0.60;;;26.50;99.90;;;;;;5075066;28;20183;-69
2022/03/28 01:30:34;;;;;;;2.20;0.87;;;26.40;99.90;;;;;;5075076;28;20180;-70
2022/03/28 01:33:02;;;;;;;2.60;0.60;;;26.30;99.90;;;;;;5075078;28;20172;-69
2022/03/28 01:35:31;;;;;;;3.90;1.10;;;26.30;99.90;;;;;;5074673;28;20341;-69
2022/03/28 01:38:00;;;;;;;2.10;0.73;;;26.20;99.90;;;;;;5074392;28;20551;-70
2022/03/28 01:40:29;;;;;;;1.53;0.70;;;26.00;99.90;;;;;;5074378;28;20176;-70
2022/03/28 01:42:57;;;;;;;5.50;0.90;;;25.90;99.90;;;;;;5074301;28;20192;-69
2022/03/28 01:45:25;;;;;;;2.23;0.80;;;25.90;99.90;;;;;;5074203;28;20191;-69
2022/03/28 01:47:53;;;;;;;2.87;1.10;;;26.00;99.90;;;;;;5074624;28;20191;-69
2022/03/28 01:50:21;;;;;;;1.60;0.90;;;26.10;99.90;;;;;;5074610;28;20660;-68
2022/03/28 01:52:49;;;;;;;2.03;0.87;;;25.90;99.90;;;;;;5074729;28;20203;-69
2022/03/28 01:55:17;;;;;;;3.23;1.13;;;25.90;99.90;;;;;;5073347;28;20204;-68
2022/03/28 01:57:46;;;;;;;2.07;1.47;;;26.00;99.90;;;;;;5073211;28;20256;-68
2022/03/28 02:00:17;;;;;;;3.43;0.90;;;26.10;99.90;;;;;;5071123;28;20206;-68
2022/03/28 02:02:47;;;;;;;4.03;0.87;;;26.20;99.90;;;;;;5072901;28;20187;-68
2022/03/28 02:05:18;;;;;;;2.10;0.80;;;26.30;99.90;;;;;;5073311;28;20214;-68
2022/03/28 02:07:48;;;;;;;4.00;1.03;;;26.40;99.90;;;;;;5073513;28;20215;-68
2022/03/28 02:10:20;;;;;;;3.60;1.03;;;26.30;99.90;;;;;;5072771;28;20184;-69
2022/03/28 02:12:48;;;;;;;2.23;0.97;;;26.50;99.90;;;;;;5072569;28;20644;-69
2022/03/28 02:15:16;;;;;;;1.80;1.00;;;26.80;99.90;;;;;;5073776;28;20242;-69
2022/03/28 02:17:45;;;;;;;3.37;0.90;;;27.20;99.90;;;;;;5073108;28;20180;-70
2022/03/28 02:20:14;;;;;;;2.93;0.90;;;27.70;99.90;;;;;;5073791;28;20184;-69
2022/03/28 02:22:43;;;;;;;2.17;0.63;;;27.80;99.90;;;;;;5073513;28;20180;-69
2022/03/28 02:25:14;;;;;;;3.60;0.60;;;28.30;99.90;;;;;;5072011;28;20561;-68
2022/03/28 02:27:43;;;;;;;0.70;0.60;;;28.20;99.90;;;;;;5073695;28;20195;-68
2022/03/28 02:30:12;;;;;;;2.37;1.10;;;28.30;99.90;;;;;;5074094;28;20237;-70
2022/03/28 02:32:40;;;;;;;1.57;0.70;;;28.30;99.90;;;;;;5068327;28;20210;-69
2022/03/28 02:35:08;;;;;;;1.23;0.77;;;28.10;99.90;;;;;;5071959;28;20584;-66
2022/03/28 02:37:36;;;;;;;1.10;0.73;;;27.90;99.90;;;;;;5073486;28;20173;-69
2022/03/28 02:40:05;;;;;;;1.80;0.50;;;28.10;99.90;;;;;;5073811;28;20251;-70
2022/03/28 02:42:32;;;;;;;3.90;0.60;;;28.50;99.90;;;;;;5073597;28;20188;-68
2022/03/28 02:45:01;;;;;;;0.70;0.60;;;29.20;99.90;;;;;;5073755;28;20179;-69
2022/03/28 02:47:28;;;;;;;2.60;0.73;;;29.70;99.90;;;;;;5073403;28;20578;-70
2022/03/28 02:49:56;;;;;;;0.83;0.40;;;28.90;99.90;;;;;;5072077;28;20184;-69
2022/03/28 02:52:24;;;;;;;0.83;0.50;;;28.50;99.90;;;;;;5073416;28;20349;-69
2022/03/28 02:54:53;;;;;;;1.63;0.70;;;29.20;99.90;;;;;;5073415;28;20167;-69
2022/03/28 02:57:20;;;;;;;1.37;0.80;;;29.10;99.90;;;;;;5073119;28;20186;-71
2022/03/28 02:59:48;;;;;;;2.27;0.80;;;28.40;99.90;;;;;;5073389;28;20677;-69
2022/03/28 03:02:16;;;;;;;1.30;0.90;;;28.70;99.90;;;;;;5071917;28;20949;-69
2022/03/28 03:04:43;;;;;;;4.93;1.03;;;28.80;99.90;;;;;;5072660;28;20230;-69
2022/03/28 03:07:11;;;;;;;3.93;1.63;;;28.80;99.90;;;;;;5071133;28;20195;-70
2022/03/28 03:09:39;;;;;;;2.07;1.27;;;29.00;99.90;;;;;;5073196;28;20233;-69
2022/03/28 03:12:07;;;;;;;7.53;1.63;;;28.50;99.90;;;;;;5072688;28;20180;-69
2022/03/28 03:14:35;;;;;;;4.63;1.90;;;28.20;99.90;;;;;;5072709;28;20215;-68
2022/03/28 03:17:03;;;;;;;2.97;1.87;;;28.40;99.90;;;;;;5072744;28;20276;-69
2022/03/28 03:19:30;;;;;;;3.93;1.83;;;28.70;99.90;;;;;;5073030;28;20190;-69
2022/03/28 03:21:58;;;;;;;3.53;1.67;;;28.80;99.90;;;;;;5072854;28;20191;-69
2022/03/28 03:24:26;;;;;;;5.07;1.70;;;29.50;99.90;;;;;;5071338;28;20551;-69
2022/03/28 03:26:54;;;;;;;5.50;1.73;;;29.80;99.90;;;;;;5072829;28;20187;-70
2022/03/28 03:29:21;;;;;;;4.97;2.10;;;29.40;99.90;;;;;;5072250;28;20565;-70
2022/03/28 03:31:49;;;;;;;3.75;1.42;;;29.30;99.90;;;;;;5072588;28;20175;-70
2022/03/28 03:34:17;;;;;;;5.33;1.77;;;29.70;99.90;;;;;;5072370;28;20183;-70
2022/03/28 03:36:45;;;;;;;10.40;2.30;;;29.60;99.90;;;;;;5072233;28;20695;-69
2022/03/28 03:39:13;;;;;;;7.03;1.73;;;28.90;99.90;;;;;;5072623;28;20172;-69
2022/03/28 03:41:41;;;;;;;5.03;1.80;;;28.70;99.90;;;;;;5072171;28;20695;-69
2022/03/28 03:44:09;;;;;;;3.33;1.53;;;28.70;99.90;;;;;;5072415;28;20176;-69
2022/03/28 03:46:37;;;;;;;6.33;1.70;;;28.10;99.90;;;;;;5072507;28;20180;-70
2022/03/28 03:49:04;;;;;;;8.97;1.50;;;28.30;99.90;;;;;;5072709;28;20216;-68
2022/03/28 03:51:32;;;;;;;2.60;1.20;;;28.00;99.90;;;;;;5073494;28;20199;-69
2022/03/28 03:57:22;;;;;;;4.10;1.77;;;28.00;99.90;;;;;;5072475;28;20206;-69
2022/03/28 03:59:50;;;;;;;5.10;1.27;;;28.40;99.90;;;;;;5072783;28;20184;-70
2022/03/28 04:02:18;;;;;;;7.03;1.57;;;28.20;99.90;;;;;;5072417;28;20187;-69
2022/03/28 04:04:45;;;;;;;3.70;1.47;;;28.30;99.90;;;;;;5071911;28;20187;-70
2022/03/28 04:07:13;;;;;;;3.00;1.37;;;28.40;99.90;;;;;;5071826;28;20215;-70
2022/03/28 04:09:41;;;;;;;4.03;1.57;;;28.40;99.90;;;;;;5071989;28;20180;-70
2022/03/28 04:12:11;;;;;;;4.83;1.60;;;28.60;99.90;;;;;;5072121;28;20198;-70
2022/03/28 04:14:39;;;;;;;3.83;1.20;;;28.40;99.90;;;;;;5071957;28;20250;-70
2022/03/28 04:17:07;;;;;;;5.00;1.53;;;28.10;99.90;;;;;;5071644;28;20226;-71
2022/03/28 04:19:35;;;;;;;5.07;1.40;;;28.10;99.90;;;;;;5071487;28;20203;-71
2022/03/28 04:22:02;;;;;;;3.87;1.40;;;27.90;99.90;;;;;;5071898;28;20607;-70
2022/03/28 04:24:29;;;;;;;3.43;1.30;;;27.30;99.90;;;;;;5071524;28;20206;-70
2022/03/28 04:26:56;;;;;;;3.30;0.93;;;27.10;99.90;;;;;;5071927;28;20732;-70
2022/03/28 04:29:24;;;;;;;5.17;1.30;;;27.20;99.90;;;;;;5071762;28;20180;-69
2022/03/28 04:31:51;;;;;;;3.50;1.43;;;27.00;99.90;;;;;;5071581;28;20188;-70
2022/03/28 04:34:18;;;;;;;4.87;1.33;;;27.10;99.90;;;;;;5071592;28;20187;-70
2022/03/28 04:36:46;;;;;;;3.70;1.40;;;27.00;99.90;;;;;;5071576;28;20282;-70
2022/03/28 04:39:13;;;;;;;2.83;1.27;;;26.80;99.90;;;;;;5071746;28;20188;-71
2022/03/28 04:41:40;;;;;;;3.17;1.70;;;26.90;99.90;;;;;;5071132;28;20679;-70
2022/03/28 04:44:08;;;;;;;3.63;1.50;;;26.80;99.90;;;;;;5071634;28;20191;-70
2022/03/28 04:46:35;;;;;;;6.00;1.50;;;26.90;99.90;;;;;;5071543;28;20196;-70
2022/03/28 04:49:02;;;;;;;6.50;1.57;;;26.70;99.90;;;;;;5071289;28;20188;-69
2022/03/28 04:51:30;;;;;;;4.87;1.40;;;26.40;99.90;;;;;;5068867;28;20179;-70
2022/03/28 04:53:57;;;;;;;5.77;1.73;;;26.40;99.90;;;;;;5071504;28;20183;-70
2022/03/28 04:56:24;;;;;;;2.47;1.40;;;26.10;99.90;;;;;;5071513;28;20224;-70
2022/03/28 04:58:52;;;;;;;2.77;1.40;;;26.00;99.90;;;;;;5070235;28;20566;-70
2022/03/28 05:01:19;;;;;;;4.07;1.50;;;26.10;99.90;;;;;;5071658;28;20215;-70
2022/03/28 05:03:47;;;;;;;5.20;1.70;;;26.00;99.90;;;;;;5070987;28;20172;-69
2022/03/28 05:06:14;;;;;;;2.57;1.50;;;25.90;99.90;;;;;;5070666;28;20184;-69
2022/03/28 05:08:41;;;;;;;4.27;1.43;;;25.90;99.90;;;;;;5071317;28;20195;-69
2022/03/28 05:11:09;;;;;;;4.37;1.70;;;26.20;99.90;;;;;;5069120;28;20720;-69
2022/03/28 05:13:36;;;;;;;3.33;1.60;;;26.10;99.90;;;;;;5070887;28;20254;-70
2022/03/28 05:16:03;;;;;;;3.27;1.80;;;26.10;99.90;;;;;;5070883;28;20222;-69
2022/03/28 05:18:31;;;;;;;4.37;1.77;;;25.90;99.90;;;;;;5071055;28;20179;-68
2022/03/28 05:20:58;;;;;;;3.23;1.63;;;25.80;99.90;;;;;;5071103;28;20183;-68
2022/03/28 05:23:26;;;;;;;3.70;1.67;;;25.50;99.90;;;;;;5069708;28;20176;-68
2022/03/28 05:25:53;;;;;;;3.67;1.60;;;25.20;99.90;;;;;;5071056;28;20222;-69
2022/03/28 05:28:20;;;;;;;4.53;1.90;;;25.30;99.90;;;;;;5071361;28;20222;-68
2022/03/28 05:30:48;;;;;;;3.93;1.77;;;25.20;99.90;;;;;;5074062;28;20569;-69
2022/03/28 05:33:17;;;;;;;6.47;2.53;;;25.30;99.90;;;;;;5074942;28;20587;-69
2022/03/28 05:35:45;;;;;;;4.07;1.77;;;25.20;99.90;;;;;;5074334;28;21612;-69
2022/03/28 05:38:13;;;;;;;3.47;1.63;;;25.10;99.90;;;;;;5075047;28;20713;-69
2022/03/28 05:40:40;;;;;;;3.97;2.13;;;25.00;99.90;;;;;;5074473;28;20224;-68
2022/03/28 05:43:08;;;;;;;4.03;1.63;;;25.00;99.90;;;;;;5073302;28;20189;-69
2022/03/28 05:45:36;;;;;;;4.57;1.73;;;24.70;99.90;;;;;;5074631;28;20622;-68
2022/03/28 05:48:04;;;;;;;3.47;1.90;;;24.70;99.90;;;;;;5074713;28;20557;-69
2022/03/28 05:50:32;;;;;;;5.03;2.00;;;24.60;99.90;;;;;;5074757;28;20180;-68
2022/03/28 05:52:59;;;;;;;9.20;2.23;;;24.60;99.90;;;;;;5074677;28;20259;-68
2022/03/28 05:55:27;;;;;;;4.67;1.93;;;24.50;99.90;;;;;;5074332;28;20301;-68
2022/03/28 05:57:54;;;;;;;5.03;1.93;;;24.50;99.90;;;;;;5073107;28;20601;-69
2022/03/28 06:00:22;;;;;;;3.23;2.00;;;24.40;99.90;;;;;;5074663;28;20172;-68
2022/03/28 06:02:49;;;;;;;4.20;1.80;;;24.50;99.90;;;;;;5074532;28;20618;-69
2022/03/28 06:05:16;;;;;;;4.70;1.93;;;24.50;99.90;;;;;;5074302;28;20184;-69
2022/03/28 06:07:44;;;;;;;6.20;2.20;;;24.50;99.90;;;;;;5074231;28;20176;-69
2022/03/28 06:10:12;;;;;;;9.30;2.60;;;24.40;99.90;;;;;;5074368;28;20180;-69
2022/03/28 06:12:39;;;;;;;6.63;2.67;;;24.40;99.90;;;;;;5074116;28;20180;-69
2022/03/28 06:15:07;;;;;;;5.30;2.50;;;24.30;99.90;;;;;;5073977;28;20302;-68
2022/03/28 06:17:34;;;;;;;4.77;2.50;;;24.30;99.90;;;;;;5074016;28;20278;-69
2022/03/28 06:20:06;;;;;;;3.57;2.10;;;24.20;99.90;;;;;;5074050;28;20187;-69
2022/03/28 06:22:34;;;;;;;5.53;2.23;;;24.20;99.90;;;;;;5073368;28;20188;-68
2022/03/28 06:25:02;;;;;;;3.43;1.73;;;24.20;99.90;;;;;;5073342;28;20530;-69
2022/03/28 06:27:29;;;;;;;5.17;1.63;;;24.20;99.90;;;;;;5071893;28;20667;-69
2022/03/28 06:29:57;;;;;;;6.30;1.80;;;24.20;99.90;;;;;;5072598;28;20232;-68
2022/03/28 06:32:24;;;;;;;4.33;1.80;;;24.10;99.90;;;;;;5073702;28;20606;-68
2022/03/28 06:34:52;;;;;;;4.77;1.60;;;24.00;99.90;;;;;;5073931;28;20222;-68
2022/03/28 06:37:23;;;;;;;2.23;1.33;;;24.00;99.90;;;;;;5073600;28;20215;-69
2022/03/28 06:39:51;;;;;;;2.37;1.30;;;23.80;99.90;;;;;;5073738;28;20215;-68
2022/03/28 06:42:18;;;;;;;3.50;1.13;;;23.80;99.90;;;;;;5072712;28;20176;-68
2022/03/28 06:44:45;;;;;;;2.27;1.53;;;23.70;99.90;;;;;;5072328;28;20267;-69
2022/03/28 06:47:12;;;;;;;7.63;1.73;;;23.70;99.90;;;;;;5073345;28;20209;-68
2022/03/28 06:49:40;;;;;;;8.13;1.30;;;23.60;99.90;;;;;;5073397;28;20571;-68
2022/03/28 06:52:08;;;;;;;5.70;1.60;;;23.60;99.90;;;;;;5073053;28;20176;-68
2022/03/28 06:54:35;;;;;;;14.13;2.63;;;23.50;99.90;;;;;;5073428;28;20204;-68
2022/03/28 06:57:04;;;;;;;3.33;1.37;;;23.50;99.90;;;;;;5073076;28;20214;-68
2022/03/28 06:59:31;;;;;;;2.83;1.27;;;23.40;99.90;;;;;;5071843;28;20215;-68
2022/03/28 07:01:58;;;;;;;3.27;1.40;;;23.40;99.90;;;;;;5073052;28;20175;-68
2022/03/28 07:04:26;;;;;;;4.67;1.37;;;23.30;99.90;;;;;;5072998;28;20201;-68
2022/03/28 07:06:53;;;;;;;7.90;1.07;;;23.30;99.90;;;;;;5073234;28;20178;-68
2022/03/28 07:09:21;;;;;;;6.23;1.13;;;23.20;99.90;;;;;;5073012;28;20176;-68
2022/03/28 07:11:48;;;;;;;0.93;0.67;;;23.20;99.90;;;;;;5071942;28;20184;-68
2022/03/28 07:14:16;;;;;;;5.97;1.13;;;23.10;99.90;;;;;;5072649;28;20281;-69
2022/03/28 07:16:44;;;;;;;2.83;0.80;;;23.10;99.90;;;;;;5072788;28;20409;-69
2022/03/28 07:19:13;;;;;;;6.70;1.20;;;22.90;99.90;;;;;;5072722;28;20632;-69
2022/03/28 07:21:40;;;;;;;5.10;1.00;;;23.00;99.90;;;;;;5072905;28;20644;-68
2022/03/28 07:24:08;;;;;;;5.03;1.17;;;22.90;99.90;;;;;;5072687;28;20179;-69
2022/03/28 07:26:35;;;;;;;3.37;1.03;;;22.90;99.90;;;;;;5072600;28;20183;-69
2022/03/28 07:29:04;;;;;;;6.67;1.23;;;22.80;99.90;;;;;;5072736;28;20225;-68
2022/03/28 07:31:32;;;;;;;5.03;1.60;;;22.80;99.90;;;;;;5072782;28;20655;-69
2022/03/28 07:36:45;;;;;;;6.90;1.10;;;22.80;99.90;;;;;;5072483;28;20258;-69
2022/03/28 07:39:12;;;;;;;2.40;0.80;;;22.70;99.90;;;;;;5072724;28;20728;-69
2022/03/28 07:41:40;;;;;;;2.77;0.87;;;22.70;99.90;;;;;;5072537;28;20632;-70
2022/03/28 07:44:07;;;;;;;3.43;1.27;;;22.60;99.90;;;;;;5072040;28;20188;-69
2022/03/28 07:46:35;;;;;;;4.63;0.80;;;22.60;99.90;;;;;;5072489;28;20179;-69
2022/03/28 07:49:03;;;;;;;3.63;1.07;;;22.60;99.90;;;;;;5072135;28;20263;-69
2022/03/28 07:51:30;;;;;;;4.73;0.97;;;22.60;99.90;;;;;;5072429;28;20190;-69
2022/03/28 07:53:57;;;;;;;6.03;1.30;;;22.50;99.90;;;;;;5071314;28;20699;-69
2022/03/28 07:56:27;;;;;;;4.17;1.00;;;22.50;99.90;;;;;;5072132;28;20211;-70
2022/03/28 07:58:54;;;;;;;6.20;1.10;;;22.40;99.90;;;;;;5072263;28;20199;-69
2022/03/28 08:01:22;;;;;;;5.57;0.97;;;22.30;99.90;;;;;;5071645;28;20274;-69
2022/03/28 08:03:53;;;;;;;3.07;1.20;;;22.30;99.90;;;;;;5071978;28;20184;-69
2022/03/28 08:06:20;;;;;;;6.47;1.10;;;22.30;99.90;;;;;;5070851;28;20194;-68
2022/03/28 08:08:48;;;;;;;4.47;0.97;;;22.20;99.90;;;;;;5071990;28;20203;-69
2022/03/28 08:11:15;;;;;;;6.87;1.37;;;22.10;99.90;;;;;;5070992;28;20656;-68
2022/03/28 08:13:43;;;;;;;5.83;1.30;;;22.00;99.90;;;;;;5071953;28;20230;-68
2022/03/28 08:16:10;;;;;;;8.03;1.43;;;22.00;99.90;;;;;;5071879;28;20232;-68
2022/03/28 08:18:39;;;;;;;7.57;1.53;;;22.00;99.90;;;;;;5071918;28;20258;-69
2022/03/28 08:21:06;;;;;;;8.27;1.40;;;21.90;99.90;;;;;;5072500;28;20187;-69
2022/03/28 08:23:33;;;;;;;5.10;1.43;;;21.90;99.90;;;;;;5073750;28;20180;-70
2022/03/28 08:26:01;;;;;;;2.80;1.30;;;21.80;99.90;;;;;;5073184;28;20634;-69
2022/03/28 08:28:28;;;;;;;5.00;1.20;;;21.80;99.90;;;;;;5073092;28;20172;-70
2022/03/28 08:30:55;;;;;;;5.43;1.50;;;21.90;99.90;;;;;;5072761;28;20176;-69
2022/03/28 08:33:23;;;;;;;6.93;1.83;;;21.90;99.90;;;;;;5072847;28;20537;-70
2022/03/28 08:35:50;;;;;;;6.53;1.60;;;21.90;99.90;;;;;;5073063;28;20196;-70
2022/03/28 08:38:18;;;;;;;4.60;1.50;;;21.80;99.90;;;;;;5072538;28;20574;-70
2022/03/28 08:40:46;;;;;;;3.70;1.27;;;21.80;99.90;;;;;;5073103;28;20182;-70
2022/03/28 08:43:18;;;;;;;6.00;1.43;;;21.80;99.90;;;;;;5072528;28;20218;-69
2022/03/28 08:45:48;;;;;;;7.57;1.90;;;21.90;99.90;;;;;;5072885;28;20190;-70
2022/03/28 08:48:17;;;;;;;6.73;1.90;;;21.80;99.90;;;;;;5072783;28;20672;-70
2022/03/28 08:50:52;;;;;;;6.50;2.03;;;21.70;99.90;;;;;;5072920;28;20193;-70
2022/03/28 08:53:19;;;;;;;6.10;1.63;;;21.70;99.90;;;;;;5072835;28;20184;-69
2022/03/28 08:55:47;;;;;;;4.70;1.60;;;21.70;99.90;;;;;;5072657;28;20203;-70
2022/03/28 08:58:14;;;;;;;10.33;1.87;;;21.70;99.90;;;;;;5072889;28;20168;-69
2022/03/28 09:00:42;;;;;;;6.40;1.57;;;21.70;99.90;;;;;;5072841;28;20175;-69
2022/03/28 09:03:10;;;;;;;4.17;1.60;;;21.70;99.90;;;;;;5072666;28;20206;-68
2022/03/28 09:05:39;;;;;;;4.73;1.20;;;21.60;99.90;;;;;;5074803;28;20182;-69
2022/03/28 09:08:10;;;;;;;3.53;1.50;;;21.70;99.90;;;;;;5076916;28;20530;-70
2022/03/28 09:10:47;;;;;;;7.97;1.53;;;21.60;99.90;;;;;;5076556;28;20630;-69
2022/03/28 09:13:19;;;;;;;6.07;1.50;;;21.70;99.90;;;;;;5080047;28;20180;-68
2022/03/28 09:15:57;;;;;;;6.20;1.70;;;21.70;99.90;;;;;;5076574;28;20222;-70
2022/03/28 09:18:26;;;;;;;6.93;1.70;;;21.70;99.90;;;;;;5076601;28;20229;-69
2022/03/28 09:20:56;;;;;;;6.40;1.80;;;21.70;99.90;;;;;;5076660;28;20255;-70
2022/03/28 09:23:36;;;;;;;8.63;2.40;;;21.70;99.90;;;;;;5076341;28;20256;-70
2022/03/28 09:26:23;;;;;;;3.33;1.20;;;21.70;99.90;;;;;;5076626;28;20194;-70
2022/03/28 09:28:53;;;;;;;2.87;1.50;;;21.60;99.90;;;;;;5076410;28;20181;-70
2022/03/28 09:31:40;;;;;;;8.83;1.40;;;21.60;99.90;;;;;;5076234;28;20178;-69
2022/03/28 09:34:10;;;;;;;5.20;1.60;;;21.60;99.90;;;;;;5076517;28;20183;-69
2022/03/28 09:36:43;;;;;;;5.50;1.60;;;21.70;99.90;;;;;;5075275;28;20208;-70
2022/03/28 09:39:34;;;;;;;3.20;1.17;;;21.70;99.90;;;;;;5076662;28;20259;-70
2022/03/28 09:42:06;;;;;;;3.47;1.33;;;21.60;99.90;;;;;;5074808;28;20226;-69
2022/03/28 09:44:53;;;;;;;5.70;1.50;;;21.60;99.90;;;;;;5074936;28;20187;-69
2022/03/28 09:47:23;;;;;;;5.90;1.50;;;21.50;99.90;;;;;;5076145;28;20309;-70
2022/03/28 09:49:57;;;;;;;5.07;1.63;;;21.50;99.90;;;;;;5076141;28;20661;-70
2022/03/28 09:52:28;;;;;;;3.93;1.47;;;21.50;99.90;;;;;;5076268;28;20191;-69
2022/03/28 09:55:01;;;;;;;7.90;1.83;;;21.50;99.90;;;;;;5076002;28;20211;-70
2022/03/28 09:57:34;;;;;;;4.77;1.60;;;21.50;99.90;;;;;;5075716;28;20207;-69
2022/03/28 10:00:13;;;;;;;9.30;2.10;;;21.50;99.90;;;;;;5075786;28;20646;-69
2022/03/28 10:02:42;;;;;;;6.33;1.50;;;21.40;99.90;;;;;;5076017;28;20169;-69
2022/03/28 10:05:09;;;;;;;4.70;1.50;;;21.30;99.90;;;;;;5075823;28;20189;-69
2022/03/28 10:07:37;;;;;;;7.23;1.73;;;21.40;99.90;;;;;;5075911;28;20528;-70
2022/03/28 10:10:06;;;;;;;3.97;2.00;;;21.40;99.90;;;;;;5075630;28;20679;-70
2022/03/28 10:12:34;;;;;;;5.63;1.90;;;21.40;99.90;;;;;;5075745;28;20524;-69
2022/03/28 10:15:04;;;;;;;4.27;2.00;;;21.40;99.90;;;;;;5074881;28;20227;-70
2022/03/28 10:17:32;;;;;;;5.40;2.50;;;21.40;99.90;;;;;;5073635;28;20716;-70
2022/03/28 10:20:00;;;;;;;4.73;1.87;;;21.40;99.90;;;;;;5075653;28;20670;-70
2022/03/28 10:22:37;;;;;;;4.87;1.83;;;21.50;99.90;;;;;;5075572;28;20174;-69
2022/03/28 10:25:10;;;;;;;6.60;2.60;;;21.50;99.90;;;;;;5075307;28;20182;-69
2022/03/28 10:27:38;;;;;;;5.17;2.33;;;21.40;99.90;;;;;;5057693;28;20184;-70
2022/03/28 10:30:33;;;;;;;5.40;2.30;;;21.40;99.90;;;;;;5075219;28;20210;-70
2022/03/28 10:33:11;;;;;;;6.47;3.60;;;21.40;99.90;;;;;;5074630;28;20649;-70
2022/03/28 10:35:39;;;;;;;9.10;3.03;;;21.40;99.90;;;;;;5075324;28;20200;-70
2022/03/28 10:38:19;;;;;;;7.83;3.20;;;21.40;99.90;;;;;;5075161;28;20266;-70
2022/03/28 10:40:58;;;;;;;7.43;3.53;;;21.40;99.90;;;;;;5075048;28;20263;-69
2022/03/28 10:43:28;;;;;;;10.77;4.27;;;21.30;99.90;;;;;;5073969;28;20183;-69
2022/03/28 10:46:18;;;;;;;8.60;3.83;;;21.30;99.90;;;;;;5075037;28;20209;-70
2022/03/28 10:48:55;;;;;;;8.47;4.47;;;21.30;99.90;;;;;;5075273;28;20172;-70
2022/03/28 10:51:26;;;;;;;8.53;4.70;;;21.20;99.90;;;;;;5075649;28;20259;-69
2022/03/28 10:53:59;;;;;;;8.50;5.07;;;21.20;99.90;;;;;;5074944;28;20634;-69
2022/03/28 10:56:32;;;;;;;5.67;4.47;;;21.20;99.90;;;;;;5074281;28;20207;-69
2022/03/28 10:59:06;;;;;;;7.17;4.80;;;21.10;99.90;;;;;;5074268;28;20176;-69
2022/03/28 11:01:38;;;;;;;10.30;5.30;;;21.10;99.90;;;;;;5074230;28;20188;-69
2022/03/28 11:04:19;;;;;;;7.43;5.13;;;21.10;99.90;;;;;;5071878;28;20261;-68
2022/03/28 11:07:07;;;;;;;9.30;5.23;;;21.10;99.90;;;;;;5071912;28;20225;-70
2022/03/28 11:09:48;;;;;;;7.63;4.73;;;21.10;99.90;;;;;;5075003;28;20195;-70
2022/03/28 11:12:21;;;;;;;9.17;5.17;;;21.10;99.90;;;;;;5074901;28;20565;-70
2022/03/28 11:14:52;;;;;;;7.73;4.57;;;21.10;99.90;;;;;;5074338;28;20318;-69
2022/03/28 11:17:28;;;;;;;11.77;5.23;;;21.10;99.90;;;;;;5073083;28;20226;-69
2022/03/28 11:20:03;;;;;;;10.47;4.57;;;21.00;99.90;;;;;;5074564;28;20190;-69
2022/03/28 11:22:41;;;;;;;9.83;5.43;;;21.00;99.90;;;;;;5073292;28;20190;-70
2022/03/28 11:25:41;;;;;;;12.77;5.93;;;21.10;99.90;;;;;;5074231;28;20182;-70
2022/03/28 11:28:23;;;;;;;9.87;5.13;;;21.10;99.90;;;;;;5074318;28;20180;-70
2022/03/28 11:31:01;;;;;;;5.97;4.40;;;21.10;99.90;;;;;;5074394;28;20172;-70
2022/03/28 11:33:40;;;;;;;8.10;4.47;;;21.10;99.90;;;;;;5074168;28;20207;-70
2022/03/28 11:36:10;;;;;;;11.67;4.30;;;21.00;99.90;;;;;;5073875;28;20255;-70
2022/03/28 11:38:45;;;;;;;8.57;4.93;;;21.00;99.90;;;;;;5072878;28;20251;-70
2022/03/28 11:41:13;;;;;;;6.47;3.73;;;21.00;99.90;;;;;;5074205;28;20199;-70
2022/03/28 11:43:43;;;;;;;7.60;3.67;;;20.90;99.90;;;;;;5073993;28;20699;-70
2022/03/28 11:46:19;;;;;;;8.57;3.40;;;20.90;99.90;;;;;;5073819;28;20256;-70
2022/03/28 11:49:01;;;;;;;12.00;4.17;;;20.90;99.90;;;;;;5074232;28;20176;-70
2022/03/28 11:51:34;;;;;;;6.20;3.63;;;20.90;99.90;;;;;;5073966;28;20180;-70
2022/03/28 11:54:04;;;;;;;4.97;2.83;;;20.90;99.90;;;;;;5073990;28;20207;-71
2022/03/28 11:56:35;;;;;;;5.17;2.73;;;20.80;99.90;;;;;;5073363;28;20203;-70
2022/03/28 11:59:08;;;;;;;4.87;2.33;;;20.80;99.90;;;;;;5072498;28;20191;-70
2022/03/28 12:01:38;;;;;;;4.47;2.77;;;20.80;99.90;;;;;;5073631;28;20684;-70
2022/03/28 12:04:07;;;;;;;7.17;2.80;;;20.80;99.90;;;;;;5072985;28;20676;-71
2022/03/28 12:06:38;;;;;;;6.57;2.70;;;20.80;99.90;;;;;;5089702;28;20188;-70
2022/03/28 12:09:07;;;;;;;6.40;3.17;;;20.80;99.90;;;;;;5073302;28;20180;-70
2022/03/28 12:11:38;;;;;;;5.03;2.67;;;20.80;99.90;;;;;;5073926;28;20181;-69
2022/03/28 12:14:06;;;;;;;7.10;3.10;;;20.80;99.90;;;;;;5072358;28;20221;-71
2022/03/28 12:16:44;;;;;;;5.30;3.03;;;20.80;99.90;;;;;;5073374;28;20208;-70
2022/03/28 12:19:37;;;;;;;4.43;2.73;;;20.80;99.90;;;;;;5072068;28;20185;-70
2022/03/28 12:22:21;;;;;;;7.27;2.60;;;20.70;99.90;;;;;;5072458;28;20200;-70
2022/03/28 12:24:53;;;;;;;5.37;2.93;;;20.70;99.90;;;;;;5072992;28;20182;-70
2022/03/28 12:27:21;;;;;;;6.90;3.03;;;20.70;99.90;;;;;;5073458;28;20518;-70
2022/03/28 12:29:52;;;;;;;6.23;2.23;;;20.70;99.90;;;;;;5073067;28;20275;-70
2022/03/28 12:32:21;;;;;;;4.13;2.50;;;20.80;99.90;;;;;;5073176;28;20189;-70
2022/03/28 12:34:48;;;;;;;5.73;2.67;;;20.80;99.90;;;;;;5072629;28;20258;-69
2022/03/28 12:37:17;;;;;;;5.70;3.03;;;20.80;99.90;;;;;;5073090;28;20572;-70
2022/03/28 12:39:45;;;;;;;7.00;3.00;;;20.80;99.90;;;;;;5072430;28;20193;-68
2022/03/28 12:42:26;;;;;;;3.43;2.37;;;20.80;99.90;;;;;;5072718;28;20663;-69
2022/03/28 12:44:55;;;;;;;8.07;2.77;;;20.80;99.90;;;;;;5072829;28;20274;-69
2022/03/28 12:47:27;;;;;;;5.37;2.80;;;20.80;99.90;;;;;;5072753;28;20182;-68
2022/03/28 12:49:56;;;;;;;5.43;2.60;;;20.80;99.90;;;;;;5072462;28;20209;-69
2022/03/28 12:52:29;;;;;;;8.17;3.13;;;20.70;99.90;;;;;;5072202;28;20287;-69
2022/03/28 12:54:57;;;;;;;5.50;3.30;;;20.70;99.90;;;;;;5072388;28;20608;-70
2022/03/28 12:57:27;;;;;;;8.10;3.77;;;20.70;99.90;;;;;;5072782;28;20203;-70
2022/03/28 12:59:55;;;;;;;6.43;3.40;;;20.80;99.90;;;;;;5072834;28;20591;-70
2022/03/28 13:02:24;;;;;;;6.17;3.30;;;20.80;99.90;;;;;;5073111;28;20206;-71
2022/03/28 13:04:56;;;;;;;5.97;3.13;;;20.70;99.90;;;;;;5072694;28;20188;-70